createdAt,value
2018-05-11T00:01:43.229Z,7.10
2018-05-11T00:04:13.084Z,7.60
2018-05-11T00:06:54.171Z,8.30
2018-05-11T00:09:23.955Z,7.73
2018-05-11T00:11:53.426Z,7.80
2018-05-11T00:14:22.298Z,7.80
2018-05-11T00:16:51.524Z,7.93
2018-05-11T00:19:20.169Z,8.37
2018-05-11T00:22:01.924Z,8.10
2018-05-11T00:24:30.774Z,7.93
2018-05-11T00:26:59.997Z,8.43
2018-05-11T00:29:29.258Z,8.23
2018-05-11T00:31:59.037Z,9.07
2018-05-11T00:34:27.542Z,8.00
2018-05-11T00:37:09.806Z,9.40
2018-05-11T00:39:40.090Z,8.50
2018-05-11T00:42:09.874Z,9.30
2018-05-11T00:44:39.847Z,8.57
2018-05-11T00:47:09.738Z,9.60
2018-05-11T00:49:39.381Z,8.73
2018-05-11T00:52:10.204Z,9.87
2018-05-11T00:54:39.784Z,9.27
2018-05-11T00:57:12.878Z,9.30
2018-05-11T00:59:42.715Z,8.57
2018-05-11T01:02:14.239Z,8.80
2018-05-11T01:04:42.748Z,9.17
2018-05-11T01:07:16.000Z,9.33
2018-05-11T01:09:45.607Z,9.70
2018-05-11T01:12:17.573Z,9.40
2018-05-11T01:14:46.035Z,8.93
2018-05-11T01:17:20.289Z,9.83
2018-05-11T01:19:49.539Z,8.20
2018-05-11T01:22:22.712Z,9.13
2018-05-11T01:24:51.442Z,9.83
2018-05-11T01:27:32.386Z,9.03
2018-05-11T01:30:00.903Z,9.30
2018-05-11T01:32:29.645Z,9.93
2018-05-11T01:34:58.534Z,8.67
2018-05-11T01:37:28.026Z,8.87
2018-05-11T01:39:57.919Z,8.60
2018-05-11T01:42:30.774Z,9.17
2018-05-11T01:45:00.359Z,9.90
2018-05-11T01:47:32.209Z,8.67
2018-05-11T01:50:00.610Z,9.70
2018-05-11T01:52:34.188Z,8.07
2018-05-11T01:55:03.112Z,9.77
2018-05-11T01:57:35.935Z,8.87
2018-05-11T02:00:05.444Z,9.43
2018-05-11T02:02:39.135Z,8.90
2018-05-11T02:05:08.095Z,8.43
2018-05-11T02:07:43.606Z,9.00
2018-05-11T02:10:12.440Z,9.67
2018-05-11T02:12:45.414Z,8.80
2018-05-11T02:15:13.953Z,9.73
2018-05-11T02:17:46.736Z,9.17
2018-05-11T02:20:16.403Z,8.67
2018-05-11T02:22:48.802Z,8.50
2018-05-11T02:25:17.649Z,8.43
2018-05-11T02:27:51.662Z,8.03
2018-05-11T02:30:20.888Z,8.03
2018-05-11T02:32:53.557Z,9.37
2018-05-11T02:35:23.256Z,8.37
2018-05-11T02:37:56.559Z,7.73
2018-05-11T02:40:26.151Z,8.57
2018-05-11T02:43:08.594Z,8.80
2018-05-11T02:45:37.099Z,7.50
2018-05-11T02:48:06.243Z,8.23
2018-05-11T02:50:36.222Z,9.63
2018-05-11T02:53:05.831Z,8.97
2018-05-11T02:55:35.683Z,8.53
2018-05-11T02:58:09.163Z,8.93
2018-05-11T03:00:39.122Z,8.90
2018-05-11T03:03:19.959Z,8.57
2018-05-11T03:05:48.543Z,8.33
2018-05-11T03:08:16.998Z,7.97
2018-05-11T03:10:46.499Z,8.40
2018-05-11T03:13:16.462Z,8.20
2018-05-11T03:15:46.047Z,8.47
2018-05-11T03:18:17.276Z,9.30
2018-05-11T03:20:46.134Z,8.70
2018-05-11T03:23:19.338Z,8.63
2018-05-11T03:25:48.066Z,9.27
2018-05-11T03:28:30.095Z,8.70
2018-05-11T03:30:59.377Z,8.53
2018-05-11T03:33:28.102Z,8.03
2018-05-11T03:35:57.352Z,8.83
2018-05-11T03:38:26.358Z,7.90
2018-05-11T03:40:56.378Z,7.70
2018-05-11T03:43:28.652Z,8.60
2018-05-11T03:45:57.537Z,7.50
2018-05-11T03:48:38.665Z,7.80
2018-05-11T03:51:07.545Z,6.90
2018-05-11T03:53:37.795Z,7.87
2018-05-11T03:56:07.015Z,7.47
2018-05-11T03:58:36.231Z,8.17
2018-05-11T04:01:10.160Z,8.27
2018-05-11T04:05:51.614Z,7.80
2018-05-11T04:08:43.339Z,8.40
2018-05-11T04:11:12.230Z,7.60
2018-05-11T04:13:42.308Z,8.27
2018-05-11T04:16:13.415Z,8.33
2018-05-11T04:18:44.814Z,7.33
2018-05-11T04:21:14.067Z,8.00
2018-05-11T04:23:54.918Z,7.40
2018-05-11T04:26:23.819Z,6.93
2018-05-11T04:28:52.278Z,7.43
2018-05-11T04:31:21.519Z,7.43
2018-05-11T04:33:53.734Z,7.57
2018-05-11T04:36:22.184Z,7.40
2018-05-11T04:38:54.595Z,7.30
2018-05-11T04:41:23.458Z,7.33
2018-05-11T04:43:57.867Z,8.10
2018-05-11T04:46:26.351Z,6.73
2018-05-11T04:49:00.364Z,6.80
2018-05-11T04:51:29.883Z,7.57
2018-05-11T04:54:03.039Z,6.73
2018-05-11T04:56:31.505Z,7.23
2018-05-11T04:59:13.969Z,6.43
2018-05-11T05:01:43.217Z,7.00
2018-05-11T05:04:11.739Z,6.53
2018-05-11T05:06:41.355Z,7.13
2018-05-11T05:09:11.634Z,6.43
2018-05-11T05:11:41.494Z,6.47
2018-05-11T05:14:13.245Z,6.40
2018-05-11T05:16:42.749Z,6.73
2018-05-11T05:19:15.784Z,6.27
2018-05-11T05:21:45.084Z,7.30
2018-05-11T05:24:17.124Z,6.80
2018-05-11T05:26:46.780Z,7.40
2018-05-11T05:29:28.934Z,7.27
2018-05-11T05:31:57.384Z,7.57
2018-05-11T05:34:27.039Z,7.57
2018-05-11T05:36:56.667Z,8.33
2018-05-11T05:39:25.133Z,8.40
2018-05-11T05:41:53.988Z,7.43
2018-05-11T05:44:35.128Z,6.87
2018-05-11T05:47:03.734Z,7.17
2018-05-11T05:49:34.070Z,7.60
2018-05-11T05:52:02.613Z,8.27
2018-05-11T05:54:32.596Z,8.53
2018-05-11T05:57:02.553Z,8.93
2018-05-11T05:59:33.435Z,10.23
2018-05-11T06:02:01.945Z,10.07
2018-05-11T06:04:44.268Z,10.03
2018-05-11T06:07:13.338Z,9.10
2018-05-11T06:09:43.167Z,9.93
2018-05-11T06:12:11.669Z,8.80
2018-05-11T06:14:40.154Z,9.73
2018-05-11T06:17:09.403Z,10.03
2018-05-11T06:19:42.530Z,10.27
2018-05-11T06:22:12.286Z,9.33
2018-05-11T06:24:46.244Z,11.40
2018-05-11T06:27:14.719Z,10.87
2018-05-11T06:29:48.228Z,10.90
2018-05-11T06:32:19.160Z,11.57
2018-05-11T06:34:51.509Z,10.90
2018-05-11T06:37:20.323Z,10.03
2018-05-11T06:40:01.198Z,13.17
2018-05-11T06:42:30.035Z,11.17
2018-05-11T06:44:59.317Z,12.10
2018-05-11T06:47:28.996Z,12.57
2018-05-11T06:49:59.065Z,11.00
2018-05-11T06:52:28.341Z,10.93
2018-05-11T06:55:00.962Z,12.50
2018-05-11T06:57:29.948Z,12.77
2018-05-11T07:00:02.727Z,11.83
2018-05-11T07:02:31.416Z,12.93
2018-05-11T07:05:13.649Z,12.33
2018-05-11T07:07:43.780Z,12.43
2018-05-11T07:10:13.434Z,12.53
2018-05-11T07:12:43.450Z,13.60
2018-05-11T07:15:13.861Z,13.80
2018-05-11T07:17:43.572Z,15.73
2018-05-11T07:20:14.694Z,14.63
2018-05-11T07:22:44.667Z,14.93
2018-05-11T07:25:17.397Z,16.37
2018-05-11T07:27:47.499Z,14.37
2018-05-11T07:30:19.614Z,14.10
2018-05-11T07:32:49.260Z,16.00
2018-05-11T07:35:21.681Z,18.23
2018-05-11T07:37:51.600Z,20.67
2018-05-11T07:40:24.524Z,20.40
2018-05-11T07:42:54.211Z,19.40
2018-05-11T07:45:26.267Z,18.67
2018-05-11T07:47:54.766Z,19.83
2018-05-11T07:50:36.924Z,21.17
2018-05-11T07:53:06.785Z,22.23
2018-05-11T07:55:35.379Z,22.60
2018-05-11T07:58:03.932Z,21.07
2018-05-11T08:00:33.851Z,22.53
2018-05-11T08:03:02.362Z,22.17
2018-05-11T08:05:41.715Z,21.40
2018-05-11T08:08:10.959Z,22.00
2018-05-11T08:10:40.365Z,19.93
2018-05-11T08:13:08.904Z,20.73
2018-05-11T08:15:40.242Z,20.70
2018-05-11T08:18:08.782Z,20.20
2018-05-11T08:20:50.027Z,21.37
2018-05-11T08:23:19.666Z,20.23
2018-05-11T08:25:49.195Z,19.87
2018-05-11T08:28:17.717Z,19.87
2018-05-11T08:30:48.394Z,19.90
2018-05-11T08:33:18.073Z,19.60
2018-05-11T08:35:50.414Z,18.77
2018-05-11T08:38:20.181Z,18.63
2018-05-11T08:40:53.418Z,18.33
2018-05-11T08:43:22.370Z,18.73
2018-05-11T08:45:56.260Z,20.40
2018-05-11T08:48:26.516Z,21.10
2018-05-11T08:50:57.340Z,18.77
2018-05-11T08:53:27.484Z,18.90
2018-05-11T08:56:00.631Z,18.00
2018-05-11T08:58:29.563Z,17.90
2018-05-11T09:01:02.160Z,17.93
2018-05-11T09:03:31.419Z,18.97
2018-05-11T09:06:05.584Z,16.87
2018-05-11T09:08:34.559Z,16.60
2018-05-11T09:11:17.136Z,15.53
2018-05-11T09:13:47.585Z,16.10
2018-05-11T09:16:17.202Z,15.07
2018-05-11T09:18:47.297Z,15.37
2018-05-11T09:21:17.172Z,13.47
2018-05-11T09:23:46.331Z,14.37
2018-05-11T09:26:16.313Z,15.27
2018-05-11T09:28:45.959Z,14.30
2018-05-11T09:31:18.345Z,14.17
2018-05-11T09:33:48.387Z,12.43
2018-05-11T09:36:21.396Z,13.50
2018-05-11T09:38:50.323Z,13.73
2018-05-11T09:41:21.925Z,13.20
2018-05-11T09:43:52.351Z,14.93
2018-05-11T09:46:25.466Z,15.03
2018-05-11T09:48:54.044Z,16.07
2018-05-11T09:51:26.620Z,14.90
2018-05-11T09:53:56.137Z,15.23
2018-05-11T09:56:37.419Z,14.30
2018-05-11T09:59:07.866Z,14.37
2018-05-11T10:01:37.154Z,14.17
2018-05-11T10:04:06.598Z,13.67
2018-05-11T10:06:35.379Z,14.63
2018-05-11T10:09:06.151Z,15.27
2018-05-11T10:11:38.411Z,14.13
2018-05-11T10:14:07.458Z,13.70
2018-05-11T10:16:37.027Z,13.67
2018-05-11T10:19:06.591Z,14.63
2018-05-11T10:21:48.069Z,13.70
2018-05-11T10:24:17.343Z,13.20
2018-05-11T10:26:48.414Z,13.70
2018-05-11T10:29:17.949Z,13.07
2018-05-11T10:31:47.545Z,13.37
2018-05-11T10:34:16.910Z,12.97
2018-05-11T10:36:49.466Z,12.37
2018-05-11T10:39:18.729Z,12.53
2018-05-11T10:41:50.270Z,13.40
2018-05-11T10:44:19.688Z,12.53
2018-05-11T10:46:53.595Z,11.60
2018-05-11T10:49:22.452Z,12.40
2018-05-11T10:51:55.080Z,12.30
2018-05-11T10:54:24.593Z,12.40
2018-05-11T10:56:58.179Z,12.13
2018-05-11T10:59:27.462Z,12.60
2018-05-11T11:02:10.143Z,13.17
2018-05-11T11:04:39.651Z,12.80
2018-05-11T11:07:08.906Z,12.77
2018-05-11T11:09:38.209Z,11.67
2018-05-11T11:12:07.112Z,13.53
2018-05-11T11:14:35.631Z,12.73
2018-05-11T11:17:10.934Z,12.37
2018-05-11T11:19:40.470Z,12.73
2018-05-11T11:22:13.680Z,11.90
2018-05-11T11:24:43.213Z,12.30
2018-05-11T11:27:15.298Z,12.13
2018-05-11T11:29:45.122Z,12.30
2018-05-11T11:32:17.831Z,12.90
2018-05-11T11:34:47.539Z,11.10
2018-05-11T11:37:18.557Z,11.60
2018-05-11T11:39:48.583Z,13.30
2018-05-11T11:42:31.187Z,12.07
2018-05-11T11:45:01.426Z,11.20
2018-05-11T11:47:29.963Z,10.77
2018-05-11T11:50:00.259Z,10.00
2018-05-11T11:52:29.783Z,10.33
2018-05-11T11:54:59.078Z,10.30
2018-05-11T11:57:28.098Z,9.90
2018-05-11T11:59:57.355Z,12.00
2018-05-11T12:02:30.437Z,10.60
2018-05-11T12:04:59.976Z,11.00
2018-05-11T12:07:41.081Z,11.53
2018-05-11T12:10:10.779Z,11.03
2018-05-11T12:12:39.398Z,10.63
2018-05-11T12:15:08.667Z,10.73
2018-05-11T12:17:39.032Z,10.17
2018-05-11T12:20:07.574Z,10.03
2018-05-11T12:22:40.920Z,10.00
2018-05-11T12:25:10.765Z,9.30
2018-05-11T12:27:42.758Z,9.70
2018-05-11T12:30:11.647Z,9.47
2018-05-11T12:32:44.387Z,9.53
2018-05-11T12:35:14.250Z,9.27
2018-05-11T12:37:47.197Z,9.53
2018-05-11T12:40:17.711Z,7.67
2018-05-11T12:42:49.586Z,7.07
2018-05-11T12:45:18.936Z,7.87
2018-05-11T12:47:54.863Z,7.77
2018-05-11T12:50:23.834Z,8.33
2018-05-11T12:52:56.792Z,7.77
2018-05-11T12:55:27.300Z,8.57
2018-05-11T12:57:58.197Z,8.10
2018-05-11T13:00:28.815Z,8.53
2018-05-11T13:03:10.120Z,6.90
2018-05-11T13:05:40.084Z,7.43
2018-05-11T13:08:10.168Z,6.30
2018-05-11T13:10:39.557Z,7.33
2018-05-11T13:13:08.965Z,5.47
2018-05-11T13:15:38.368Z,6.73
2018-05-11T13:18:08.583Z,6.33
2018-05-11T13:20:38.186Z,5.83
2018-05-11T13:23:11.498Z,5.57
2018-05-11T13:25:41.040Z,4.90
2018-05-11T13:28:13.713Z,5.20
2018-05-11T13:30:42.343Z,5.23
2018-05-11T13:33:15.168Z,3.97
2018-05-11T13:35:43.790Z,4.60
2018-05-11T13:38:16.729Z,4.47
2018-05-11T13:40:46.263Z,4.50
2018-05-11T13:43:28.604Z,4.43
2018-05-11T13:45:57.555Z,4.07
2018-05-11T13:48:27.651Z,4.53
2018-05-11T13:50:57.351Z,4.43
2018-05-11T13:53:28.058Z,4.43
2018-05-11T13:55:56.611Z,4.70
2018-05-11T13:58:27.286Z,4.43
2018-05-11T14:00:56.863Z,3.90
2018-05-11T14:03:38.857Z,3.90
2018-05-11T14:06:07.711Z,3.90
2018-05-11T14:08:36.996Z,3.77
2018-05-11T14:11:07.413Z,4.33
2018-05-11T14:13:37.128Z,4.33
2018-05-11T14:16:06.624Z,5.10
2018-05-11T14:18:35.885Z,3.37
2018-05-11T14:21:04.787Z,3.73
2018-05-11T14:23:37.652Z,3.67
2018-05-11T14:26:06.608Z,3.87
2018-05-11T14:28:39.839Z,4.07
2018-05-11T14:31:08.462Z,3.77
2018-05-11T14:33:42.068Z,3.60
2018-05-11T14:36:11.861Z,4.10
2018-05-11T14:38:44.242Z,4.13
2018-05-11T14:41:13.553Z,3.90
2018-05-11T14:43:47.815Z,3.87
2018-05-11T14:46:16.739Z,4.00
2018-05-11T14:48:50.316Z,4.00
2018-05-11T14:51:19.577Z,3.23
2018-05-11T14:54:01.219Z,3.50
2018-05-11T14:56:31.085Z,3.63
2018-05-11T14:59:00.358Z,4.00
2018-05-11T15:01:29.817Z,3.67
2018-05-11T15:03:59.104Z,3.90
2018-05-11T15:06:28.353Z,3.27
2018-05-11T15:09:01.124Z,3.67
2018-05-11T15:11:30.131Z,3.13
2018-05-11T15:14:03.318Z,3.60
2018-05-11T15:16:32.580Z,3.60
2018-05-11T15:19:06.234Z,2.93
2018-05-11T15:21:35.518Z,3.43
2018-05-11T15:24:08.243Z,3.03
2018-05-11T15:26:38.181Z,3.10
2018-05-11T15:29:12.022Z,2.73
2018-05-11T15:31:42.178Z,3.00
2018-05-11T15:34:14.335Z,3.20
2018-05-11T15:36:42.856Z,3.40
2018-05-11T15:39:16.138Z,3.10
2018-05-11T15:41:45.407Z,3.00
2018-05-11T15:44:27.698Z,3.40
2018-05-11T15:46:58.157Z,3.30
2018-05-11T15:49:28.340Z,3.20
2018-05-11T15:51:57.938Z,2.90
2018-05-11T15:54:29.909Z,3.17
2018-05-11T15:56:59.573Z,3.23
2018-05-11T15:59:28.923Z,3.77
2018-05-11T16:01:58.114Z,3.20
2018-05-11T16:04:30.922Z,3.37
2018-05-11T16:07:00.328Z,3.43
2018-05-11T16:09:29.606Z,3.23
2018-05-11T16:11:59.363Z,3.20
2018-05-11T16:14:32.097Z,4.10
2018-05-11T16:17:01.943Z,3.20
2018-05-11T16:19:34.408Z,3.23
2018-05-11T16:22:04.547Z,3.33
2018-05-11T16:24:37.965Z,3.57
2018-05-11T16:27:07.690Z,3.77
2018-05-11T16:29:38.351Z,3.53
2018-05-11T16:32:08.094Z,4.23
2018-05-11T16:34:48.922Z,3.17
2018-05-11T16:37:18.690Z,3.13
2018-05-11T16:39:47.253Z,3.47
2018-05-11T16:42:17.369Z,3.50
2018-05-11T16:44:48.162Z,2.67
2018-05-11T16:47:17.228Z,2.90
2018-05-11T16:49:49.104Z,2.87
2018-05-11T16:52:18.899Z,3.23
2018-05-11T16:54:50.449Z,2.90
2018-05-11T16:57:19.357Z,3.37
2018-05-11T17:00:01.487Z,3.17
2018-05-11T17:02:31.131Z,3.10
2018-05-11T17:04:59.898Z,3.60
2018-05-11T17:07:29.398Z,3.30
2018-05-11T17:09:58.807Z,3.70
2018-05-11T17:12:28.862Z,3.27
2018-05-11T17:15:01.101Z,3.10
2018-05-11T17:17:30.383Z,3.60
2018-05-11T17:20:03.408Z,3.70
2018-05-11T17:22:33.547Z,3.50
2018-05-11T17:25:07.471Z,3.50
2018-05-11T17:27:36.710Z,3.27
2018-05-11T17:30:10.203Z,3.27
2018-05-11T17:32:40.044Z,3.50
2018-05-11T17:35:12.471Z,4.00
2018-05-11T17:37:42.171Z,3.50
2018-05-11T17:40:15.591Z,4.27
2018-05-11T17:42:44.414Z,3.77
2018-05-11T17:45:16.697Z,3.33
2018-05-11T17:47:47.206Z,3.50
2018-05-11T17:50:18.736Z,3.40
2018-05-11T17:52:49.785Z,3.60
2018-05-11T17:55:20.874Z,3.90
2018-05-11T17:57:50.534Z,3.70
2018-05-11T18:00:23.618Z,3.80
2018-05-11T18:02:54.281Z,3.83
2018-05-11T18:05:25.971Z,4.63
2018-05-11T18:07:55.218Z,5.03
2018-05-11T18:10:27.310Z,4.87
2018-05-11T18:13:02.311Z,4.87
2018-05-11T18:15:32.428Z,4.90
2018-05-11T18:18:01.699Z,4.60
2018-05-11T18:20:34.470Z,4.20
2018-05-11T18:23:04.418Z,4.10
2018-05-11T18:25:34.699Z,3.97
2018-05-11T18:28:04.326Z,3.80
2018-05-11T18:30:35.814Z,3.80
2018-05-11T18:33:05.215Z,4.03
2018-05-11T18:35:41.263Z,3.80
2018-05-11T18:38:11.282Z,3.77
2018-05-11T18:40:40.338Z,4.20
2018-05-11T18:43:09.992Z,3.90
2018-05-11T18:45:43.611Z,4.50
2018-05-11T18:48:12.559Z,4.50
2018-05-11T18:50:45.724Z,3.93
2018-05-11T18:53:16.419Z,4.87
2018-05-11T18:55:48.364Z,4.37
2018-05-11T18:58:17.148Z,4.40
2018-05-11T19:00:50.929Z,4.30
2018-05-11T19:03:20.108Z,3.93
2018-05-11T19:06:02.590Z,4.53
2018-05-11T19:08:32.316Z,4.33
2018-05-11T19:11:02.098Z,4.10
2018-05-11T19:13:32.096Z,3.87
2018-05-11T19:16:01.682Z,3.93
2018-05-11T19:18:31.063Z,3.53
2018-05-11T19:21:01.241Z,3.63
2018-05-11T19:23:31.040Z,4.53
2018-05-11T19:26:03.554Z,4.70
2018-05-11T19:28:32.360Z,4.67
2018-05-11T19:31:06.208Z,4.50
2018-05-11T19:33:35.081Z,5.53
2018-05-11T19:36:17.319Z,5.60
2018-05-11T19:38:47.303Z,4.90
2018-05-11T19:41:16.851Z,4.93
2018-05-11T19:43:46.912Z,4.80
2018-05-11T19:46:16.782Z,4.53
2018-05-11T19:48:45.302Z,4.40
2018-05-11T19:51:15.512Z,4.83
2018-05-11T19:53:45.052Z,4.30
2018-05-11T19:56:26.146Z,4.57
2018-05-11T19:58:54.971Z,4.27
2018-05-11T20:01:24.605Z,4.73
2018-05-11T20:03:54.135Z,5.20
2018-05-11T20:06:23.433Z,5.87
2018-05-11T20:08:52.771Z,5.80
2018-05-11T20:24:42.208Z,5.47
2018-05-11T20:27:10.912Z,5.70
2018-05-11T20:29:40.722Z,5.27
2018-05-11T20:32:10.785Z,4.60
2018-05-11T20:34:40.860Z,5.70
2018-05-11T20:37:10.838Z,5.13
2018-05-11T20:39:39.471Z,6.07
2018-05-11T20:42:07.956Z,8.57
2018-05-11T20:44:39.268Z,7.90
2018-05-11T20:47:09.009Z,7.70
2018-05-11T20:49:50.360Z,6.27
2018-05-11T20:52:19.647Z,5.83
2018-05-11T20:54:49.037Z,6.10
2018-05-11T20:57:18.614Z,5.73
2018-05-11T20:59:48.507Z,6.07
2018-05-11T21:02:17.735Z,5.57
2018-05-11T21:04:49.465Z,6.03
2018-05-11T21:07:19.181Z,5.47
2018-05-11T21:09:52.599Z,5.60
2018-05-11T21:12:23.441Z,5.50
2018-05-11T21:14:56.850Z,5.00
2018-05-11T21:17:25.895Z,5.67
2018-05-11T21:19:58.479Z,5.10
2018-05-11T21:22:28.484Z,5.23
2018-05-11T21:25:01.880Z,5.50
2018-05-11T21:27:34.008Z,4.93
2018-05-11T21:30:03.752Z,4.70
2018-05-11T21:32:33.293Z,4.90
2018-05-11T21:35:06.540Z,5.30
2018-05-11T21:37:36.237Z,5.20
2018-05-11T21:40:08.751Z,5.33
2018-05-11T21:42:38.016Z,5.43
2018-05-11T21:45:11.952Z,5.20
2018-05-11T21:47:40.426Z,4.87
2018-05-11T21:50:13.756Z,5.17
2018-05-11T21:52:43.373Z,5.03
2018-05-11T21:55:14.768Z,5.13
2018-05-11T21:57:45.483Z,5.20
2018-05-11T22:00:19.056Z,5.27
2018-05-11T22:02:49.218Z,5.10
2018-05-11T22:05:21.025Z,5.20
2018-05-11T22:07:50.642Z,5.97
2018-05-11T22:10:22.682Z,5.23
2018-05-11T22:12:55.745Z,5.33
2018-05-11T22:15:26.611Z,5.20
2018-05-11T22:17:56.511Z,5.57
2018-05-11T22:20:29.476Z,6.07
2018-05-11T22:22:58.539Z,6.13
2018-05-11T22:25:31.749Z,5.90
2018-05-11T22:28:02.304Z,5.33
2018-05-11T22:30:34.598Z,5.30
2018-05-11T22:33:04.744Z,5.93
2018-05-11T22:35:34.727Z,5.17
2018-05-11T22:38:03.336Z,6.10
2018-05-11T22:40:36.053Z,5.17
2018-05-11T22:43:04.905Z,5.50
2018-05-11T22:45:38.029Z,5.27
2018-05-11T22:48:07.382Z,5.60
2018-05-11T22:50:41.934Z,5.93
2018-05-11T22:53:10.403Z,6.30
2018-05-11T22:55:42.880Z,5.97
2018-05-11T22:58:12.494Z,6.13
2018-05-11T23:00:45.426Z,6.33
2018-05-11T23:03:14.088Z,6.13
2018-05-11T23:05:47.152Z,6.27
2018-05-11T23:08:16.035Z,6.07
2018-05-11T23:10:52.962Z,6.80
2018-05-11T23:13:22.632Z,6.73
2018-05-11T23:15:53.300Z,6.37
2018-05-11T23:18:22.464Z,6.80
2018-05-11T23:20:56.209Z,6.07
2018-05-11T23:23:24.685Z,6.73
2018-05-11T23:25:57.932Z,6.90
2018-05-11T23:28:27.253Z,8.03
2018-05-11T23:31:09.214Z,7.50
2018-05-11T23:33:38.803Z,7.23
2018-05-11T23:36:07.290Z,6.70
2018-05-11T23:38:37.258Z,7.50
2018-05-11T23:41:06.201Z,7.20
2018-05-11T23:43:35.910Z,7.73
2018-05-11T23:46:17.802Z,7.23
2018-05-11T23:48:47.683Z,7.70
2018-05-11T23:51:17.258Z,8.03
2018-05-11T23:53:46.761Z,7.20
2018-05-11T23:56:16.306Z,7.57
2018-05-11T23:58:45.529Z,7.50
